Time,TemperatureF,DewpointF,PressureIn,WindDirection,WindDirectionDegrees,WindSpeedMPH,WindSpeedGustMPH,Humidity,HourlyPrecipIn,Conditions,Clouds,dailyrainin,SoftwareType,DateUTC
2014-02-07 06:44:00,38.5,23.3,29.94,South,179,12.0,12.0,54,0.00,,,0.00,Wunderground v.1.15,2014-02-07 14:44:00,
2014-02-07 06:52:00,38.3,23.1,29.93,SE,124,9.0,10.0,54,0.00,,,0.00,Wunderground v.1.15,2014-02-07 14:52:00,
2014-02-07 07:06:00,38.3,22.6,29.94,SE,144,10.0,10.0,53,0.00,,,0.00,Wunderground v.1.15,2014-02-07 15:06:00,
2014-02-07 07:18:00,38.9,22.8,29.93,ESE,112,13.0,13.0,52,0.00,,,0.00,Wunderground v.1.15,2014-02-07 15:18:00,
2014-02-07 08:36:00,41.9,21.0,29.93,SSW,195,7.0,7.0,43,0.00,,,0.00,Wunderground v.1.15,2014-02-07 16:36:00,
2014-02-07 08:42:00,42.5,21.5,29.93,East,100,3.0,8.0,43,0.00,,,0.00,Wunderground v.1.15,2014-02-07 16:42:00,
2014-02-07 08:54:00,43.3,22.8,29.93,ESE,110,1.0,1.0,44,0.00,,,0.00,Wunderground v.1.15,2014-02-07 16:54:00,
2014-02-07 08:56:00,43.5,24.1,29.93,ESE,110,1.0,1.0,46,0.00,,,0.00,Wunderground v.1.15,2014-02-07 16:56:00,
2014-02-07 09:01:00,43.8,23.8,29.92,SSE,157,2.0,9.0,45,0.00,,,0.00,Wunderground v.1.15,2014-02-07 17:01:00,
2014-02-07 09:20:00,44.2,24.7,29.92,ESE,104,6.0,13.0,46,0.00,,,0.00,Wunderground v.1.15,2014-02-07 17:20:00,
2014-02-07 09:26:00,44.3,22.1,29.92,ESE,104,5.0,6.0,41,0.00,,,0.00,Wunderground v.1.15,2014-02-07 17:26:00,
2014-02-07 10:08:00,45.8,21.6,29.93,ENE,58,3.0,3.0,38,0.00,,,0.00,Wunderground v.1.15,2014-02-07 18:08:00,
2014-02-07 10:20:00,46.1,24.8,29.93,ENE,64,1.0,1.0,43,0.00,,,0.00,Wunderground v.1.15,2014-02-07 18:20:00,
2014-02-07 10:24:00,46.2,23.2,29.93,East,90,1.0,2.0,40,0.00,,,0.00,Wunderground v.1.15,2014-02-07 18:24:00,
2014-02-07 10:26:00,46.4,22.8,29.93,ENE,72,1.0,2.0,39,0.00,,,0.00,Wunderground v.1.15,2014-02-07 18:26:00,
2014-02-07 10:28:00,46.5,22.8,29.93,ENE,75,1.0,2.0,39,0.00,,,0.00,Wunderground v.1.15,2014-02-07 18:28:00,
2014-02-07 10:29:00,46.5,22.8,29.93,East,86,2.0,4.0,39,0.00,,,0.00,Wunderground v.1.15,2014-02-07 18:29:00,
2014-02-07 10:33:00,46.7,23.0,29.93,ENE,69,2.0,4.0,39,0.00,,,0.00,Wunderground v.1.15,2014-02-07 18:33:00,
2014-02-07 10:36:00,46.4,21.5,29.93,NE,56,2.0,6.0,37,0.00,,,0.00,Wunderground v.1.15,2014-02-07 18:36:00,
2014-02-07 10:38:00,46.1,21.9,29.93,NE,38,3.0,6.0,38,0.00,,,0.00,Wunderground v.1.15,2014-02-07 18:38:00,
2014-02-07 10:40:00,46.0,22.4,29.93,NE,52,4.0,4.0,39,0.00,,,0.00,Wunderground v.1.15,2014-02-07 18:40:00,
2014-02-07 10:42:00,45.8,22.2,29.93,East,86,3.0,4.0,39,0.00,,,0.00,Wunderground v.1.15,2014-02-07 18:42:00,
2014-02-07 10:45:00,46.1,22.5,29.93,East,82,3.0,4.0,39,0.00,,,0.00,Wunderground v.1.15,2014-02-07 18:45:00,
2014-02-07 10:48:00,46.2,22.6,29.93,ENE,64,2.0,4.0,39,0.00,,,0.00,Wunderground v.1.15,2014-02-07 18:48:00,
2014-02-07 10:50:00,46.2,20.7,29.93,NE,40,1.0,1.0,36,0.00,,,0.00,Wunderground v.1.15,2014-02-07 18:50:00,
2014-02-07 10:54:00,46.7,21.1,29.93,NNE,27,1.0,1.0,36,0.00,,,0.00,Wunderground v.1.15,2014-02-07 18:54:00,
2014-02-07 10:58:00,47.1,22.1,29.93,WSW,241,1.0,1.0,37,0.00,,,0.00,Wunderground v.1.15,2014-02-07 18:58:00,
2014-02-07 11:00:00,47.3,22.3,29.93,NNW,329,1.0,1.0,37,0.00,,,0.00,Wunderground v.1.15,2014-02-07 19:00:00,
2014-02-07 11:02:00,47.1,22.1,29.93,NNE,30,2.0,4.0,37,0.00,,,0.00,Wunderground v.1.15,2014-02-07 19:02:00,
2014-02-07 11:03:00,47.0,22.0,29.93,NNE,14,3.0,4.0,37,0.00,,,0.00,Wunderground v.1.15,2014-02-07 19:03:00,
2014-02-07 11:06:00,47.0,21.4,29.93,NNW,343,4.0,6.0,36,0.00,,,0.00,Wunderground v.1.15,2014-02-07 19:06:00,
2014-02-07 11:08:00,46.8,21.9,29.93,WNW,296,5.0,6.0,37,0.00,,,0.00,Wunderground v.1.15,2014-02-07 19:08:00,
2014-02-07 11:10:00,46.8,23.1,29.93,WNW,299,5.0,5.0,39,0.00,,,0.00,Wunderground v.1.15,2014-02-07 19:10:00,
2014-02-07 11:16:00,47.1,23.4,29.93,East,93,4.0,14.0,39,0.00,,,0.00,Wunderground v.1.15,2014-02-07 19:16:00,
2014-02-07 11:18:00,47.0,24.5,29.93,East,99,5.0,14.0,41,0.00,,,0.00,Wunderground v.1.15,2014-02-07 19:18:00,
2014-02-07 11:24:00,46.7,24.8,29.93,SE,124,8.0,10.0,42,0.00,,,0.00,Wunderground v.1.15,2014-02-07 19:24:00,
2014-02-07 11:26:00,46.5,24.6,29.93,East,82,7.0,10.0,42,0.00,,,0.00,Wunderground v.1.15,2014-02-07 19:26:00,
2014-02-07 11:29:00,46.2,24.3,29.93,ENE,78,6.0,6.0,42,0.00,,,0.00,Wunderground v.1.15,2014-02-07 19:29:00,
2014-02-07 11:32:00,46.2,24.9,29.93,East,95,6.0,6.0,43,0.00,,,0.00,Wunderground v.1.15,2014-02-07 19:32:00,
2014-02-07 11:36:00,46.0,24.7,29.93,ESE,104,6.0,6.0,43,0.00,,,0.00,Wunderground v.1.15,2014-02-07 19:36:00,
2014-02-07 11:38:00,46.0,25.3,29.93,SE,131,4.0,6.0,44,0.00,,,0.00,Wunderground v.1.15,2014-02-07 19:38:00,
2014-02-07 11:40:00,46.1,24.3,29.93,SE,133,4.0,4.0,42,0.00,,,0.00,Wunderground v.1.15,2014-02-07 19:40:00,
2014-02-07 11:42:00,46.1,24.8,29.93,SE,141,3.0,4.0,43,0.00,,,0.00,Wunderground v.1.15,2014-02-07 19:42:00,
2014-02-07 11:44:00,46.2,23.8,29.93,ESE,116,2.0,8.0,41,0.00,,,0.00,Wunderground v.1.15,2014-02-07 19:44:00,
2014-02-07 11:46:00,46.2,24.9,29.92,SE,137,3.0,9.0,43,0.00,,,0.00,Wunderground v.1.15,2014-02-07 19:46:00,
2014-02-07 11:50:00,46.2,25.5,29.92,SE,137,5.0,5.0,44,0.00,,,0.00,Wunderground v.1.15,2014-02-07 19:50:00,
2014-02-07 11:52:00,46.4,25.1,29.92,ESE,123,5.0,5.0,43,0.00,,,0.00,Wunderground v.1.15,2014-02-07 19:52:00,
2014-02-07 11:54:00,46.4,23.9,29.92,SSE,150,6.0,13.0,41,0.00,,,0.00,Wunderground v.1.15,2014-02-07 19:54:00,
2014-02-07 11:58:00,46.7,23.6,29.92,ESE,104,6.0,13.0,40,0.00,,,0.00,Wunderground v.1.15,2014-02-07 19:58:00,
2014-02-07 12:00:00,46.8,24.3,29.90,ESE,116,6.0,9.0,41,0.00,,,0.00,Wunderground v.1.15,2014-02-07 20:00:00,
2014-02-07 12:02:00,46.8,25.5,29.90,ESE,104,7.0,9.0,43,0.00,,,0.00,Wunderground v.1.15,2014-02-07 20:02:00,
2014-02-07 12:04:00,46.8,24.9,29.90,ESE,107,6.0,9.0,42,0.00,,,0.00,Wunderground v.1.15,2014-02-07 20:04:00,
2014-02-07 12:06:00,46.8,24.9,29.90,ESE,107,4.0,9.0,42,0.00,,,0.00,Wunderground v.1.15,2014-02-07 20:06:00,
2014-02-07 12:12:00,47.1,24.6,29.90,NE,48,1.0,4.0,41,0.00,,,0.00,Wunderground v.1.15,2014-02-07 20:12:00,
2014-02-07 12:16:00,46.8,27.1,29.90,NE,51,1.0,4.0,46,0.00,,,0.00,Wunderground v.1.15,2014-02-07 20:16:00,
2014-02-07 12:20:00,46.2,26.5,29.90,East,90,2.0,2.0,46,0.00,,,0.00,Wunderground v.1.15,2014-02-07 20:20:00,
2014-02-07 12:22:00,46.2,26.5,29.90,East,90,2.0,2.0,46,0.00,,,0.00,Wunderground v.1.15,2014-02-07 20:22:00,
2014-02-07 12:23:00,46.2,26.0,29.90,East,88,2.0,2.0,45,0.00,,,0.00,Wunderground v.1.15,2014-02-07 20:23:00,
2014-02-07 12:28:00,46.5,25.7,29.90,ESE,104,2.0,6.0,44,0.00,,,0.00,Wunderground v.1.15,2014-02-07 20:28:00,
2014-02-07 12:30:00,46.7,25.4,29.88,East,97,2.0,2.0,43,0.00,,,0.00,Wunderground v.1.15,2014-02-07 20:30:00,
2014-02-07 12:32:00,47.0,26.2,29.88,East,100,3.0,3.0,44,0.00,,,0.00,Wunderground v.1.15,2014-02-07 20:32:00,
2014-02-07 12:36:00,47.4,26.0,29.88,East,100,2.0,3.0,43,0.00,,,0.00,Wunderground v.1.15,2014-02-07 20:36:00,
2014-02-07 12:38:00,47.7,26.3,29.88,East,96,3.0,3.0,43,0.00,,,0.00,Wunderground v.1.15,2014-02-07 20:38:00,
2014-02-07 12:40:00,47.7,25.7,29.88,East,79,2.0,2.0,42,0.00,,,0.00,Wunderground v.1.15,2014-02-07 20:40:00,
2014-02-07 12:42:00,47.7,25.1,29.88,East,79,2.0,2.0,41,0.00,,,0.00,Wunderground v.1.15,2014-02-07 20:42:00,
2014-02-07 12:44:00,47.7,26.3,29.88,SSE,165,2.0,6.0,43,0.00,,,0.00,Wunderground v.1.15,2014-02-07 20:44:00,
2014-02-07 12:46:00,47.7,26.3,29.88,SSE,152,3.0,6.0,43,0.00,,,0.00,Wunderground v.1.15,2014-02-07 20:46:00,
2014-02-07 12:50:00,47.7,26.8,29.88,SE,138,4.0,7.0,44,0.00,,,0.00,Wunderground v.1.15,2014-02-07 20:50:00,
2014-02-07 12:56:00,48.0,27.1,29.88,SE,127,6.0,8.0,44,0.00,,,0.00,Wunderground v.1.15,2014-02-07 20:56:00,
2014-02-07 13:02:00,48.3,27.4,29.86,ESE,110,8.0,14.0,44,0.00,,,0.00,Wunderground v.1.15,2014-02-07 21:02:00,
2014-02-07 13:04:00,48.3,27.4,29.86,SE,130,9.0,14.0,44,0.00,,,0.00,Wunderground v.1.15,2014-02-07 21:04:00,
2014-02-07 13:06:00,48.5,27.0,29.86,South,172,9.0,14.0,43,0.00,,,0.00,Wunderground v.1.15,2014-02-07 21:06:00,
2014-02-07 13:08:00,48.6,25.9,29.86,WSW,244,9.0,14.0,41,0.00,,,0.00,Wunderground v.1.15,2014-02-07 21:08:00,
2014-02-07 13:12:00,48.9,26.2,29.86,ESE,109,9.0,9.0,41,0.00,,,0.00,Wunderground v.1.15,2014-02-07 21:12:00,
2014-02-07 13:14:00,49.1,27.0,29.86,SE,138,9.0,9.0,42,0.00,,,0.00,Wunderground v.1.15,2014-02-07 21:14:00,
2014-02-07 13:18:00,48.9,26.2,29.86,SSE,157,8.0,9.0,41,0.00,,,0.00,Wunderground v.1.15,2014-02-07 21:18:00,
2014-02-07 13:19:00,48.8,26.1,29.86,SE,138,9.0,13.0,41,0.00,,,0.00,Wunderground v.1.15,2014-02-07 21:19:00,
2014-02-07 13:24:00,48.3,26.8,29.86,South,182,11.0,22.0,43,0.00,,,0.00,Wunderground v.1.15,2014-02-07 21:24:00,
2014-02-07 13:26:00,48.0,26.0,29.86,South,186,13.0,22.0,42,0.00,,,0.00,Wunderground v.1.15,2014-02-07 21:26:00,
2014-02-07 13:28:00,47.6,26.2,29.86,South,184,14.0,22.0,43,0.00,,,0.00,Wunderground v.1.15,2014-02-07 21:28:00,
2014-02-07 13:30:00,47.4,26.6,29.87,ESE,123,13.0,13.0,44,0.00,,,0.00,Wunderground v.1.15,2014-02-07 21:30:00,
2014-02-07 13:34:00,46.8,26.0,29.87,South,172,13.0,16.0,44,0.00,,,0.00,Wunderground v.1.15,2014-02-07 21:34:00,
2014-02-07 13:36:00,46.5,26.8,29.87,SE,126,12.0,29.0,46,0.00,,,0.00,Wunderground v.1.15,2014-02-07 21:36:00,
2014-02-07 13:38:00,46.1,26.4,29.87,ESE,109,15.0,29.0,46,0.00,,,0.00,Wunderground v.1.15,2014-02-07 21:38:00,
2014-02-07 13:40:00,45.8,26.2,29.87,South,191,15.0,15.0,46,0.00,,,0.00,Wunderground v.1.15,2014-02-07 21:40:00,
2014-02-07 13:44:00,45.5,26.9,29.87,East,80,15.0,18.0,48,0.00,,,0.00,Wunderground v.1.15,2014-02-07 21:44:00,
2014-02-07 13:46:00,45.4,26.3,29.87,South,186,15.0,18.0,47,0.00,,,0.00,Wunderground v.1.15,2014-02-07 21:46:00,
2014-02-07 13:52:00,45.2,26.1,29.87,SE,128,13.0,13.0,47,0.00,,,0.00,Wunderground v.1.15,2014-02-07 21:52:00,
2014-02-07 13:54:00,45.2,26.1,29.87,SSE,155,13.0,17.0,47,0.00,,,0.00,Wunderground v.1.15,2014-02-07 21:54:00,
2014-02-07 13:56:00,45.1,26.1,29.87,SE,143,14.0,17.0,47,0.00,,,0.00,Wunderground v.1.15,2014-02-07 21:56:00,
2014-02-07 13:59:00,44.8,25.8,29.87,SSE,155,13.0,15.0,47,0.00,,,0.00,Wunderground v.1.15,2014-02-07 21:59:00,
2014-02-07 14:04:00,44.6,26.1,29.87,ESE,112,14.0,25.0,48,0.00,,,0.00,Wunderground v.1.15,2014-02-07 22:04:00,
2014-02-07 14:05:00,44.5,26.0,29.87,SE,141,14.0,25.0,48,0.00,,,0.00,Wunderground v.1.15,2014-02-07 22:05:00,
2014-02-07 14:08:00,44.3,26.3,29.87,SE,127,17.0,25.0,49,0.00,,,0.00,Wunderground v.1.15,2014-02-07 22:08:00,
2014-02-07 14:10:00,44.2,26.2,29.87,SSE,168,17.0,21.0,49,0.00,,,0.00,Wunderground v.1.15,2014-02-07 22:10:00,
2014-02-07 14:16:00,44.1,26.1,29.88,SE,124,18.0,21.0,49,0.00,,,0.00,Wunderground v.1.15,2014-02-07 22:16:00,
2014-02-07 14:18:00,44.2,26.2,29.88,East,97,17.0,21.0,49,0.00,,,0.00,Wunderground v.1.15,2014-02-07 22:18:00,
2014-02-07 14:22:00,44.3,26.3,29.88,ESE,114,17.0,20.0,49,0.00,,,0.00,Wunderground v.1.15,2014-02-07 22:22:00,
2014-02-07 14:24:00,44.3,26.8,29.88,SSE,151,17.0,20.0,50,0.00,,,0.00,Wunderground v.1.15,2014-02-07 22:24:00,
2014-02-07 14:28:00,44.1,26.6,29.88,SSE,160,19.0,30.0,50,0.00,,,0.00,Wunderground v.1.15,2014-02-07 22:28:00,
2014-02-07 14:30:00,44.1,27.1,29.90,SE,143,19.0,20.0,51,0.00,,,0.00,Wunderground v.1.15,2014-02-07 22:30:00,
2014-02-07 14:34:00,43.8,26.8,29.90,ESE,109,20.0,28.0,51,0.00,,,0.00,Wunderground v.1.15,2014-02-07 22:34:00,
2014-02-07 14:35:00,43.6,26.6,29.90,SE,131,19.0,28.0,51,0.00,,,0.00,Wunderground v.1.15,2014-02-07 22:35:00,
2014-02-07 14:38:00,43.6,26.6,29.90,ESE,121,20.0,28.0,51,0.00,,,0.00,Wunderground v.1.15,2014-02-07 22:38:00,
2014-02-07 14:40:00,43.6,27.1,29.90,SE,137,19.0,19.0,52,0.00,,,0.00,Wunderground v.1.15,2014-02-07 22:40:00,
2014-02-07 14:42:00,43.5,27.0,29.90,SE,131,18.0,26.0,52,0.00,,,0.00,Wunderground v.1.15,2014-02-07 22:42:00,
2014-02-07 14:44:00,43.5,27.0,29.90,ESE,119,19.0,26.0,52,0.00,,,0.00,Wunderground v.1.15,2014-02-07 22:44:00,
2014-02-07 14:50:00,43.3,27.3,29.90,ESE,121,19.0,29.0,53,0.00,,,0.00,Wunderground v.1.15,2014-02-07 22:50:00,
2014-02-07 14:52:00,43.2,27.2,29.90,SE,126,20.0,29.0,53,0.00,,,0.00,Wunderground v.1.15,2014-02-07 22:52:00,
2014-02-07 14:54:00,43.1,27.6,29.90,ESE,110,20.0,29.0,54,0.00,,,0.00,Wunderground v.1.15,2014-02-07 22:54:00,
2014-02-07 14:56:00,42.9,27.4,29.90,ESE,116,20.0,29.0,54,0.00,,,0.00,Wunderground v.1.15,2014-02-07 22:56:00,
2014-02-07 14:58:00,42.8,27.7,29.90,SE,140,20.0,29.0,55,0.00,,,0.00,Wunderground v.1.15,2014-02-07 22:58:00,
2014-02-07 15:02:00,42.5,27.9,29.89,ESE,117,21.0,24.0,56,0.00,,,0.00,Wunderground v.1.15,2014-02-07 23:02:00,
2014-02-07 15:04:00,42.3,27.7,29.89,SE,124,21.0,25.0,56,0.00,,,0.00,Wunderground v.1.15,2014-02-07 23:04:00,
2014-02-07 15:05:00,42.2,28.0,29.89,East,99,21.0,25.0,57,0.00,,,0.00,Wunderground v.1.15,2014-02-07 23:05:00,
2014-02-07 15:08:00,42.1,28.4,29.89,ESE,116,21.0,25.0,58,0.00,,,0.00,Wunderground v.1.15,2014-02-07 23:08:00,
2014-02-07 15:12:00,41.8,28.5,29.89,ESE,117,22.0,29.0,59,0.00,,,0.00,Wunderground v.1.15,2014-02-07 23:12:00,
2014-02-07 15:16:00,41.5,29.0,29.88,East,90,22.0,29.0,61,0.00,,,0.00,Wunderground v.1.15,2014-02-07 23:16:00,
2014-02-07 15:18:00,41.3,28.9,29.88,ESE,104,22.0,29.0,61,0.00,,,0.00,Wunderground v.1.15,2014-02-07 23:18:00,
2014-02-07 15:20:00,41.3,28.9,29.88,SE,130,22.0,22.0,61,0.00,,,0.00,Wunderground v.1.15,2014-02-07 23:20:00,
2014-02-07 15:22:00,41.2,29.2,29.88,SE,124,21.0,22.0,62,0.00,,,0.00,Wunderground v.1.15,2014-02-07 23:22:00,
2014-02-07 15:26:00,40.9,28.9,29.88,ESE,107,21.0,24.0,62,0.00,,,0.00,Wunderground v.1.15,2014-02-07 23:26:00,
2014-02-07 15:28:00,40.8,29.2,29.88,ESE,116,21.0,24.0,63,0.00,,,0.00,Wunderground v.1.15,2014-02-07 23:28:00,
2014-02-07 15:30:00,40.8,29.2,29.91,ESE,107,21.0,21.0,63,0.00,,,0.00,Wunderground v.1.15,2014-02-07 23:30:00,
2014-02-07 15:32:00,40.8,29.2,29.91,ESE,120,20.0,22.0,63,0.00,,,0.00,Wunderground v.1.15,2014-02-07 23:32:00,
2014-02-07 15:35:00,40.8,29.2,29.91,SE,124,19.0,22.0,63,0.00,,,0.00,Wunderground v.1.15,2014-02-07 23:35:00,
2014-02-07 15:38:00,40.8,29.2,29.91,SE,133,19.0,22.0,63,0.00,,,0.00,Wunderground v.1.15,2014-02-07 23:38:00,
2014-02-07 15:40:00,40.9,29.3,29.91,East,83,19.0,20.0,63,0.00,,,0.00,Wunderground v.1.15,2014-02-07 23:40:00,
2014-02-07 15:42:00,40.9,29.3,29.91,ESE,106,20.0,32.0,63,0.00,,,0.00,Wunderground v.1.15,2014-02-07 23:42:00,
2014-02-07 15:48:00,40.9,29.3,29.91,ESE,123,21.0,32.0,63,0.00,,,0.00,Wunderground v.1.15,2014-02-07 23:48:00,
2014-02-07 15:50:00,40.9,28.9,29.91,SE,128,21.0,21.0,62,0.00,,,0.00,Wunderground v.1.15,2014-02-07 23:50:00,
2014-02-07 15:52:00,40.9,29.3,29.91,ESE,121,20.0,21.0,63,0.00,,,0.00,Wunderground v.1.15,2014-02-07 23:52:00,
2014-02-07 15:53:00,40.9,28.9,29.91,ESE,120,20.0,21.0,62,0.00,,,0.00,Wunderground v.1.15,2014-02-07 23:53:00,
2014-02-07 15:56:00,41.1,29.1,29.91,ESE,120,19.0,21.0,62,0.00,,,0.00,Wunderground v.1.15,2014-02-07 23:56:00,
2014-02-07 15:58:00,41.1,29.1,29.91,SE,127,19.0,21.0,62,0.00,,,0.00,Wunderground v.1.15,2014-02-07 23:58:00,
2014-02-07 16:02:00,41.1,29.5,29.89,SE,127,18.0,21.0,63,0.00,,,0.00,Wunderground v.1.15,2014-02-08 00:02:00,
2014-02-07 16:03:00,41.1,29.8,29.89,ESE,107,18.0,21.0,64,0.00,,,0.00,Wunderground v.1.15,2014-02-08 00:03:00,
2014-02-07 16:08:00,40.8,29.9,29.89,ESE,110,18.0,21.0,65,0.00,,,0.00,Wunderground v.1.15,2014-02-08 00:08:00,
2014-02-07 16:09:00,40.8,29.9,29.89,ESE,104,18.0,23.0,65,0.00,,,0.00,Wunderground v.1.15,2014-02-08 00:09:00,
2014-02-07 16:14:00,40.6,29.7,29.89,SE,128,18.0,23.0,65,0.00,,,0.00,Wunderground v.1.15,2014-02-08 00:14:00,
2014-02-07 16:18:00,40.5,29.3,29.89,ESE,103,17.0,23.0,64,0.00,,,0.00,Wunderground v.1.15,2014-02-08 00:18:00,
2014-02-07 16:19:00,40.6,29.4,29.89,ESE,114,17.0,17.0,64,0.00,,,0.00,Wunderground v.1.15,2014-02-08 00:19:00,
2014-02-07 16:22:00,40.6,29.0,29.89,SE,127,16.0,17.0,63,0.00,,,0.00,Wunderground v.1.15,2014-02-08 00:22:00,
2014-02-07 16:24:00,40.8,28.8,29.89,East,100,16.0,17.0,62,0.00,,,0.00,Wunderground v.1.15,2014-02-08 00:24:00,
2014-02-07 16:26:00,40.8,28.8,29.89,ESE,102,16.0,23.0,62,0.00,,,0.00,Wunderground v.1.15,2014-02-08 00:26:00,
2014-02-07 16:28:00,40.9,28.9,29.89,SE,127,17.0,23.0,62,0.00,,,0.00,Wunderground v.1.15,2014-02-08 00:28:00,
2014-02-07 16:29:00,40.9,28.9,29.88,ESE,112,17.0,17.0,62,0.00,,,0.00,Wunderground v.1.15,2014-02-08 00:29:00,
2014-02-07 16:34:00,40.9,28.9,29.88,ESE,113,16.0,18.0,62,0.00,,,0.00,Wunderground v.1.15,2014-02-08 00:34:00,
2014-02-07 16:36:00,40.9,28.5,29.88,ESE,114,17.0,18.0,61,0.00,,,0.00,Wunderground v.1.15,2014-02-08 00:36:00,
2014-02-07 16:39:00,41.1,28.7,29.88,ESE,104,15.0,15.0,61,0.00,,,0.00,Wunderground v.1.15,2014-02-08 00:39:00,
2014-02-07 16:41:00,41.1,29.1,29.88,ESE,119,15.0,16.0,62,0.00,,,0.00,Wunderground v.1.15,2014-02-08 00:41:00,
2014-02-07 16:44:00,41.1,29.1,29.88,East,83,15.0,16.0,62,0.00,,,0.00,Wunderground v.1.15,2014-02-08 00:44:00,
2014-02-07 16:46:00,41.1,29.1,29.88,East,89,15.0,16.0,62,0.00,,,0.00,Wunderground v.1.15,2014-02-08 00:46:00,
2014-02-07 16:48:00,41.1,28.7,29.88,ESE,103,15.0,16.0,61,0.00,,,0.00,Wunderground v.1.15,2014-02-08 00:48:00,
2014-02-07 16:50:00,41.1,28.3,29.88,ESE,112,15.0,15.0,60,0.00,,,0.00,Wunderground v.1.15,2014-02-08 00:50:00,
2014-02-07 16:54:00,41.3,28.4,29.88,ESE,103,15.0,16.0,60,0.00,,,0.00,Wunderground v.1.15,2014-02-08 00:54:00,
2014-02-07 16:56:00,41.3,28.4,29.88,East,100,15.0,16.0,60,0.00,,,0.00,Wunderground v.1.15,2014-02-08 00:56:00,
2014-02-07 16:59:00,41.5,28.6,29.85,SE,136,14.0,14.0,60,0.00,,,0.00,Wunderground v.1.15,2014-02-08 00:59:00,
2014-02-07 17:01:00,41.5,28.6,29.85,SSE,147,13.0,14.0,60,0.00,,,0.00,Wunderground v.1.15,2014-02-08 01:01:00,
2014-02-07 17:06:00,41.6,28.3,29.85,SSE,158,10.0,14.0,59,0.00,,,0.00,Wunderground v.1.15,2014-02-08 01:06:00,
2014-02-07 17:10:00,41.9,28.2,29.85,East,96,10.0,10.0,58,0.00,,,0.00,Wunderground v.1.15,2014-02-08 01:10:00,
2014-02-07 17:12:00,41.9,28.6,29.85,ESE,109,10.0,14.0,59,0.00,,,0.00,Wunderground v.1.15,2014-02-08 01:12:00,
2014-02-07 17:13:00,41.9,28.6,29.85,ESE,102,11.0,14.0,59,0.00,,,0.00,Wunderground v.1.15,2014-02-08 01:13:00,
2014-02-07 17:18:00,41.8,28.5,29.85,ESE,106,12.0,14.0,59,0.00,,,0.00,Wunderground v.1.15,2014-02-08 01:18:00,
2014-02-07 17:22:00,41.6,28.3,29.85,SE,124,12.0,14.0,59,0.00,,,0.00,Wunderground v.1.15,2014-02-08 01:22:00,
2014-02-07 17:23:00,41.6,27.9,29.85,East,100,11.0,14.0,58,0.00,,,0.00,Wunderground v.1.15,2014-02-08 01:23:00,
2014-02-07 17:26:00,41.8,28.1,29.85,SE,130,11.0,14.0,58,0.00,,,0.00,Wunderground v.1.15,2014-02-08 01:26:00,
2014-02-07 17:28:00,41.8,28.1,29.85,ESE,114,12.0,17.0,58,0.00,,,0.00,Wunderground v.1.15,2014-02-08 01:28:00,
2014-02-07 17:30:00,41.9,28.2,29.86,ESE,109,13.0,13.0,58,0.00,,,0.00,Wunderground v.1.15,2014-02-08 01:30:00,
2014-02-07 17:32:00,41.8,28.5,29.86,ESE,109,13.0,13.0,59,0.00,,,0.00,Wunderground v.1.15,2014-02-08 01:32:00,
2014-02-07 17:33:00,41.8,28.5,29.86,ESE,106,13.0,13.0,59,0.00,,,0.00,Wunderground v.1.15,2014-02-08 01:33:00,
2014-02-07 17:36:00,41.8,28.5,29.86,East,89,14.0,14.0,59,0.00,,,0.00,Wunderground v.1.15,2014-02-08 01:36:00,
2014-02-07 17:38:00,41.6,28.3,29.86,ESE,114,13.0,14.0,59,0.00,,,0.00,Wunderground v.1.15,2014-02-08 01:38:00,
2014-02-07 17:40:00,41.6,28.3,29.86,East,92,14.0,21.0,59,0.00,,,0.00,Wunderground v.1.15,2014-02-08 01:40:00,
2014-02-07 17:42:00,41.5,28.6,29.86,East,97,15.0,22.0,60,0.00,,,0.00,Wunderground v.1.15,2014-02-08 01:42:00,
2014-02-07 17:43:00,41.5,28.6,29.86,ESE,107,16.0,22.0,60,0.00,,,0.00,Wunderground v.1.15,2014-02-08 01:43:00,
2014-02-07 17:45:00,41.3,28.4,29.87,ESE,107,17.0,22.0,60,0.00,,,0.00,Wunderground v.1.15,2014-02-08 01:45:00,
2014-02-07 17:50:00,41.1,29.1,29.87,ESE,107,19.0,20.0,62,0.00,,,0.00,Wunderground v.1.15,2014-02-08 01:50:00,
2014-02-07 17:53:00,40.8,28.8,29.87,ESE,117,19.0,20.0,62,0.00,,,0.00,Wunderground v.1.15,2014-02-08 01:53:00,
2014-02-07 17:55:00,40.8,29.2,29.87,ESE,107,20.0,20.0,63,0.00,,,0.00,Wunderground v.1.15,2014-02-08 01:55:00,
2014-02-07 18:02:00,40.8,28.8,29.88,ESE,117,20.0,22.0,62,0.00,,,0.00,Wunderground v.1.15,2014-02-08 02:02:00,
2014-02-07 18:04:00,40.9,28.9,29.88,SE,127,19.0,22.0,62,0.00,,,0.00,Wunderground v.1.15,2014-02-08 02:04:00,
2014-02-07 18:08:00,40.9,28.9,29.88,ESE,112,18.0,22.0,62,0.00,,,0.00,Wunderground v.1.15,2014-02-08 02:08:00,
2014-02-07 18:10:00,40.9,28.9,29.88,East,79,17.0,23.0,62,0.00,,,0.00,Wunderground v.1.15,2014-02-08 02:10:00,
2014-02-07 18:12:00,40.9,28.9,29.88,ESE,110,17.0,23.0,62,0.00,,,0.00,Wunderground v.1.15,2014-02-08 02:12:00,
2014-02-07 18:16:00,40.9,28.9,29.87,East,85,14.0,23.0,62,0.00,,,0.00,Wunderground v.1.15,2014-02-08 02:16:00,
2014-02-07 18:20:00,40.9,28.9,29.87,ESE,110,13.0,20.0,62,0.00,,,0.00,Wunderground v.1.15,2014-02-08 02:20:00,
2014-02-07 18:22:00,40.9,28.9,29.87,ESE,119,12.0,20.0,62,0.00,,,0.00,Wunderground v.1.15,2014-02-08 02:22:00,
2014-02-07 18:23:00,40.9,29.3,29.87,East,88,13.0,21.0,63,0.00,,,0.00,Wunderground v.1.15,2014-02-08 02:23:00,
2014-02-07 18:26:00,40.9,29.3,29.87,ENE,75,15.0,21.0,63,0.00,,,0.00,Wunderground v.1.15,2014-02-08 02:26:00,
2014-02-07 18:30:00,41.1,29.5,29.87,ENE,76,16.0,17.0,63,0.00,,,0.00,Wunderground v.1.15,2014-02-08 02:30:00,
2014-02-07 18:33:00,40.9,29.3,29.87,SE,124,17.0,23.0,63,0.00,,,0.00,Wunderground v.1.15,2014-02-08 02:33:00,
2014-02-07 18:36:00,40.9,28.9,29.87,ESE,113,15.0,23.0,62,0.00,,,0.00,Wunderground v.1.15,2014-02-08 02:36:00,
2014-02-07 18:40:00,40.8,29.2,29.87,SE,134,16.0,18.0,63,0.00,,,0.00,Wunderground v.1.15,2014-02-08 02:40:00,
2014-02-07 18:41:00,40.8,29.6,29.87,SSE,148,16.0,18.0,64,0.00,,,0.00,Wunderground v.1.15,2014-02-08 02:41:00,
2014-02-07 18:48:00,40.6,29.0,29.89,SSW,202,13.0,18.0,63,0.00,,,0.00,Wunderground v.1.15,2014-02-08 02:48:00,
2014-02-07 18:50:00,40.8,29.2,29.89,SSE,147,10.0,10.0,63,0.00,,,0.00,Wunderground v.1.15,2014-02-08 02:50:00,
2014-02-07 18:52:00,40.9,29.3,29.89,SE,127,9.0,21.0,63,0.00,,,0.00,Wunderground v.1.15,2014-02-08 02:52:00,
2014-02-07 18:53:00,40.9,29.3,29.89,SE,127,10.0,21.0,63,0.00,,,0.00,Wunderground v.1.15,2014-02-08 02:53:00,
2014-02-07 18:56:00,40.9,29.7,29.89,East,99,12.0,21.0,64,0.00,,,0.00,Wunderground v.1.15,2014-02-08 02:56:00,
2014-02-07 19:00:00,40.9,29.7,29.88,East,96,18.0,25.0,64,0.00,,,0.00,Wunderground v.1.15,2014-02-08 03:00:00,
2014-02-07 19:02:00,40.8,29.9,29.88,East,99,20.0,25.0,65,0.00,,,0.00,Wunderground v.1.15,2014-02-08 03:02:00,
2014-02-07 19:03:00,40.6,30.1,29.88,ESE,104,21.0,25.0,66,0.00,,,0.00,Wunderground v.1.15,2014-02-08 03:03:00,
2014-02-07 19:06:00,40.6,30.1,29.88,East,100,22.0,25.0,66,0.00,,,0.00,Wunderground v.1.15,2014-02-08 03:06:00,
2014-02-07 19:08:00,40.6,30.1,29.88,ESE,110,18.0,25.0,66,0.00,,,0.00,Wunderground v.1.15,2014-02-08 03:08:00,
2014-02-07 19:12:00,40.5,30.8,29.88,ESE,104,16.0,17.0,68,0.00,,,0.00,Wunderground v.1.15,2014-02-08 03:12:00,
2014-02-07 19:18:00,40.2,30.5,29.88,SSE,148,11.0,17.0,68,0.00,,,0.00,Wunderground v.1.15,2014-02-08 03:18:00,
2014-02-07 19:19:00,40.2,30.5,29.88,SW,230,11.0,11.0,68,0.00,,,0.00,Wunderground v.1.15,2014-02-08 03:19:00,
2014-02-07 19:24:00,40.2,30.1,29.88,SSE,147,8.0,11.0,67,0.00,,,0.00,Wunderground v.1.15,2014-02-08 03:24:00,
2014-02-07 19:26:00,40.2,30.1,29.88,SSE,168,8.0,13.0,67,0.00,,,0.00,Wunderground v.1.15,2014-02-08 03:26:00,
2014-02-07 19:28:00,40.3,30.2,29.88,SSE,148,9.0,16.0,67,0.00,,,0.00,Wunderground v.1.15,2014-02-08 03:28:00,
2014-02-07 19:29:00,40.3,29.8,29.88,East,99,10.0,14.0,66,0.00,,,0.00,Wunderground v.1.15,2014-02-08 03:29:00,
2014-02-07 19:34:00,40.5,30.4,29.88,ESE,120,14.0,21.0,67,0.00,,,0.00,Wunderground v.1.15,2014-02-08 03:34:00,
2014-02-07 19:36:00,40.5,30.4,29.88,ESE,103,15.0,21.0,67,0.00,,,0.00,Wunderground v.1.15,2014-02-08 03:36:00,
2014-02-07 19:38:00,40.5,30.4,29.88,SE,131,15.0,21.0,67,0.00,,,0.00,Wunderground v.1.15,2014-02-08 03:38:00,
2014-02-07 19:42:00,40.5,30.4,29.88,East,95,16.0,18.0,67,0.00,,,0.00,Wunderground v.1.15,2014-02-08 03:42:00,
2014-02-07 19:46:00,40.5,30.4,29.88,East,93,16.0,20.0,67,0.00,,,0.00,Wunderground v.1.15,2014-02-08 03:46:00,
2014-02-07 19:48:00,40.5,30.0,29.88,ESE,121,18.0,20.0,66,0.00,,,0.00,Wunderground v.1.15,2014-02-08 03:48:00,
2014-02-07 19:52:00,40.6,30.1,29.88,ESE,104,18.0,18.0,66,0.00,,,0.00,Wunderground v.1.15,2014-02-08 03:52:00,
2014-02-07 19:54:00,40.6,30.1,29.88,SE,144,18.0,18.0,66,0.00,,,0.00,Wunderground v.1.15,2014-02-08 03:54:00,
2014-02-07 19:56:00,40.6,30.1,29.88,ESE,110,16.0,18.0,66,0.00,,,0.00,Wunderground v.1.15,2014-02-08 03:56:00,
2014-02-07 19:58:00,40.6,30.1,29.88,SE,140,14.0,18.0,66,0.00,,,0.00,Wunderground v.1.15,2014-02-08 03:58:00,
2014-02-07 19:59:00,40.6,30.1,29.87,ESE,106,14.0,14.0,66,0.00,,,0.00,Wunderground v.1.15,2014-02-08 03:59:00,
2014-02-07 20:04:00,40.9,30.0,29.87,ESE,123,14.0,21.0,65,0.00,,,0.00,Wunderground v.1.15,2014-02-08 04:04:00,
2014-02-07 20:05:00,41.1,30.2,29.87,SSE,155,16.0,21.0,65,0.00,,,0.00,Wunderground v.1.15,2014-02-08 04:05:00,
2014-02-07 20:08:00,41.2,30.3,29.87,East,97,17.0,21.0,65,0.00,,,0.00,Wunderground v.1.15,2014-02-08 04:08:00,
2014-02-07 20:10:00,41.2,30.3,29.87,East,85,17.0,17.0,65,0.00,,,0.00,Wunderground v.1.15,2014-02-08 04:10:00,
2014-02-07 20:12:00,41.3,30.0,29.87,East,89,16.0,17.0,64,0.00,,,0.00,Wunderground v.1.15,2014-02-08 04:12:00,
2014-02-07 20:13:00,41.5,30.6,29.87,ESE,106,15.0,17.0,65,0.00,,,0.00,Wunderground v.1.15,2014-02-08 04:13:00,
2014-02-07 20:18:00,41.8,30.5,29.84,SE,138,13.0,20.0,64,0.00,,,0.00,Wunderground v.1.15,2014-02-08 04:18:00,
2014-02-07 20:20:00,41.9,30.2,29.84,SE,134,12.0,12.0,63,0.00,,,0.00,Wunderground v.1.15,2014-02-08 04:20:00,
2014-02-07 20:22:00,41.9,30.2,29.84,ESE,107,12.0,12.0,63,0.00,,,0.00,Wunderground v.1.15,2014-02-08 04:22:00,
2014-02-07 20:24:00,41.9,30.6,29.84,SE,144,12.0,12.0,64,0.00,,,0.00,Wunderground v.1.15,2014-02-08 04:24:00,
2014-02-07 20:30:00,42.2,30.5,29.87,SSE,158,12.0,13.0,63,0.00,,,0.00,Wunderground v.1.15,2014-02-08 04:30:00,
2014-02-07 20:32:00,42.2,30.5,29.87,East,88,13.0,16.0,63,0.00,,,0.00,Wunderground v.1.15,2014-02-08 04:32:00,
2014-02-07 20:34:00,42.2,30.5,29.87,SE,136,13.0,29.0,63,0.00,,,0.00,Wunderground v.1.15,2014-02-08 04:34:00,
2014-02-07 20:36:00,42.1,30.4,29.87,SSE,167,13.0,29.0,63,0.00,,,0.00,Wunderground v.1.15,2014-02-08 04:36:00,
2014-02-07 20:40:00,41.9,30.6,29.87,ESE,123,13.0,17.0,64,0.00,,,0.00,Wunderground v.1.15,2014-02-08 04:40:00,
2014-02-07 20:42:00,41.9,30.6,29.87,SE,131,14.0,18.0,64,0.00,,,0.00,Wunderground v.1.15,2014-02-08 04:42:00,
2014-02-07 20:46:00,41.9,30.6,29.87,SE,134,14.0,25.0,64,0.00,,,0.00,Wunderground v.1.15,2014-02-08 04:46:00,
2014-02-07 20:48:00,41.8,30.9,29.87,ESE,117,15.0,25.0,65,0.00,,,0.00,Wunderground v.1.15,2014-02-08 04:48:00,
2014-02-07 20:50:00,41.8,30.9,29.87,ESE,114,16.0,16.0,65,0.00,,,0.00,Wunderground v.1.15,2014-02-08 04:50:00,
2014-02-07 20:52:00,41.8,30.9,29.87,SE,127,16.0,18.0,65,0.00,,,0.00,Wunderground v.1.15,2014-02-08 04:52:00,
2014-02-07 20:54:00,41.8,30.9,29.87,ESE,120,15.0,18.0,65,0.00,,,0.00,Wunderground v.1.15,2014-02-08 04:54:00,
2014-02-07 20:55:00,41.9,31.0,29.87,South,171,13.0,18.0,65,0.00,,,0.00,Wunderground v.1.15,2014-02-08 04:55:00,
2014-02-07 20:58:00,42.5,30.8,29.87,SSW,195,12.0,18.0,63,0.00,,,0.00,Wunderground v.1.15,2014-02-08 04:58:00,
2014-02-07 21:00:00,43.1,30.6,29.87,SSW,196,11.0,11.0,61,0.00,,,0.00,Wunderground v.1.15,2014-02-08 05:00:00,
2014-02-07 21:02:00,44.1,30.7,29.87,WSW,241,10.0,11.0,59,0.00,,,0.00,Wunderground v.1.15,2014-02-08 05:02:00,
2014-02-07 21:04:00,44.8,30.5,29.87,SW,217,9.0,11.0,57,0.00,,,0.00,Wunderground v.1.15,2014-02-08 05:04:00,
2014-02-07 21:06:00,45.5,30.7,29.87,West,278,10.0,11.0,56,0.00,,,0.00,Wunderground v.1.15,2014-02-08 05:06:00,
2014-02-07 21:08:00,46.2,30.5,29.87,ESE,114,10.0,11.0,54,0.00,,,0.00,Wunderground v.1.15,2014-02-08 05:08:00,
2014-02-07 21:10:00,46.5,30.3,29.87,ESE,106,9.0,9.0,53,0.00,,,0.00,Wunderground v.1.15,2014-02-08 05:10:00,
2014-02-07 21:12:00,46.5,30.7,29.87,WNW,289,9.0,9.0,54,0.00,,,0.00,Wunderground v.1.15,2014-02-08 05:12:00,
2014-02-07 21:13:00,46.5,31.2,29.87,SE,124,8.0,9.0,55,0.00,,,0.00,Wunderground v.1.15,2014-02-08 05:13:00,
2014-02-07 21:18:00,45.8,31.4,29.85,ESE,106,7.0,20.0,57,0.00,,,0.00,Wunderground v.1.15,2014-02-08 05:18:00,
2014-02-07 21:20:00,45.4,31.9,29.85,ESE,119,8.0,13.0,59,0.00,,,0.00,Wunderground v.1.15,2014-02-08 05:20:00,
2014-02-07 21:21:00,44.6,32.0,29.85,ESE,110,10.0,18.0,61,0.00,,,0.00,Wunderground v.1.15,2014-02-08 05:21:00,
2014-02-07 21:26:00,43.3,31.9,29.85,ESE,107,13.0,18.0,64,0.00,,,0.00,Wunderground v.1.15,2014-02-08 05:26:00,
2014-02-07 21:28:00,42.6,31.7,29.85,East,89,14.0,21.0,65,0.00,,,0.00,Wunderground v.1.15,2014-02-08 05:28:00,
2014-02-07 21:30:00,42.3,31.7,29.88,East,97,14.0,14.0,66,0.00,,,0.00,Wunderground v.1.15,2014-02-08 05:30:00,
2014-02-07 21:34:00,41.9,31.7,29.88,SSE,154,13.0,14.0,67,0.00,,,0.00,Wunderground v.1.15,2014-02-08 05:34:00,
2014-02-07 21:38:00,41.8,32.0,29.88,SE,143,10.0,14.0,68,0.00,,,0.00,Wunderground v.1.15,2014-02-08 05:38:00,
2014-02-07 21:40:00,41.6,31.8,29.88,SSW,192,9.0,9.0,68,0.00,,,0.00,Wunderground v.1.15,2014-02-08 05:40:00,
2014-02-07 21:44:00,41.6,31.8,29.88,ESE,117,9.0,9.0,68,0.00,,,0.00,Wunderground v.1.15,2014-02-08 05:44:00,
2014-02-07 21:46:00,41.5,32.1,29.89,SE,124,9.0,15.0,69,0.00,,,0.00,Wunderground v.1.15,2014-02-08 05:46:00,
2014-02-07 21:48:00,41.3,31.9,29.89,SE,137,11.0,15.0,69,0.00,,,0.00,Wunderground v.1.15,2014-02-08 05:48:00,
2014-02-07 21:52:00,41.2,31.8,29.89,ESE,123,14.0,20.0,69,0.00,,,0.00,Wunderground v.1.15,2014-02-08 05:52:00,
2014-02-07 21:54:00,41.1,32.1,29.89,ESE,120,14.0,20.0,70,0.00,,,0.00,Wunderground v.1.15,2014-02-08 05:54:00,
2014-02-07 21:56:00,40.9,31.9,29.89,SE,128,15.0,20.0,70,0.00,,,0.00,Wunderground v.1.15,2014-02-08 05:56:00,
2014-02-07 21:59:00,40.8,31.8,29.89,ESE,102,15.0,21.0,70,0.00,,,0.00,Wunderground v.1.15,2014-02-08 05:59:00,
2014-02-07 22:04:00,40.6,31.6,29.89,ESE,114,17.0,34.0,70,0.00,,,0.00,Wunderground v.1.15,2014-02-08 06:04:00,
2014-02-07 22:06:00,40.6,31.9,29.89,ESE,110,18.0,34.0,71,0.00,,,0.00,Wunderground v.1.15,2014-02-08 06:06:00,
2014-02-07 22:08:00,41.1,31.7,29.89,ESE,123,19.0,34.0,69,0.00,,,0.00,Wunderground v.1.15,2014-02-08 06:08:00,
2014-02-07 22:12:00,41.2,31.8,29.89,ESE,116,18.0,19.0,69,0.00,,,0.00,Wunderground v.1.15,2014-02-08 06:12:00,
2014-02-07 22:14:00,41.1,31.7,29.89,SE,126,16.0,19.0,69,0.00,,,0.00,Wunderground v.1.15,2014-02-08 06:14:00,
2014-02-07 22:16:00,41.1,31.7,29.88,East,89,14.0,22.0,69,0.00,,,0.00,Wunderground v.1.15,2014-02-08 06:16:00,
2014-02-07 22:18:00,40.9,31.5,29.88,ESE,116,15.0,22.0,69,0.00,,,0.00,Wunderground v.1.15,2014-02-08 06:18:00,
2014-02-07 22:22:00,41.1,31.7,29.88,SE,138,11.0,13.0,69,0.00,,,0.00,Wunderground v.1.15,2014-02-08 06:22:00,
2014-02-07 22:23:00,41.1,31.7,29.88,SE,134,10.0,13.0,69,0.00,,,0.00,Wunderground v.1.15,2014-02-08 06:23:00,
2014-02-07 22:26:00,41.3,31.5,29.88,ESE,104,12.0,13.0,68,0.00,,,0.00,Wunderground v.1.15,2014-02-08 06:26:00,
2014-02-07 22:28:00,41.5,31.7,29.88,ESE,119,10.0,13.0,68,0.00,,,0.00,Wunderground v.1.15,2014-02-08 06:28:00,
2014-02-07 22:32:00,41.5,31.7,29.90,ESE,120,10.0,10.0,68,0.00,,,0.00,Wunderground v.1.15,2014-02-08 06:32:00,
2014-02-07 22:33:00,41.5,31.7,29.90,ESE,109,9.0,10.0,68,0.00,,,0.00,Wunderground v.1.15,2014-02-08 06:33:00,
2014-02-07 22:40:00,41.3,31.9,29.90,SE,137,8.0,8.0,69,0.00,,,0.00,Wunderground v.1.15,2014-02-08 06:40:00,
2014-02-07 22:42:00,41.5,31.7,29.90,East,100,6.0,8.0,68,0.00,,,0.00,Wunderground v.1.15,2014-02-08 06:42:00,
2014-02-07 22:44:00,41.6,31.8,29.90,East,99,6.0,8.0,68,0.00,,,0.00,Wunderground v.1.15,2014-02-08 06:44:00,
2014-02-07 22:48:00,41.8,32.0,29.91,SSW,212,3.0,8.0,68,0.00,,,0.00,Wunderground v.1.15,2014-02-08 06:48:00,
2014-02-07 22:50:00,41.9,32.1,29.91,East,85,3.0,4.0,68,0.00,,,0.00,Wunderground v.1.15,2014-02-08 06:50:00,
2014-02-07 22:52:00,42.1,32.3,29.91,SW,224,3.0,4.0,68,0.00,,,0.00,Wunderground v.1.15,2014-02-08 06:52:00,
2014-02-07 22:55:00,42.8,32.2,29.91,SW,232,3.0,25.0,66,0.00,,,0.00,Wunderground v.1.15,2014-02-08 06:55:00,
2014-02-07 22:58:00,44.6,30.7,29.91,SW,230,6.0,25.0,58,0.00,,,0.00,Wunderground v.1.15,2014-02-08 06:58:00,
2014-02-07 23:02:00,46.4,32.0,29.90,SW,229,8.0,9.0,57,0.00,,,0.00,Wunderground v.1.15,2014-02-08 07:02:00,
2014-02-07 23:03:00,46.8,31.0,29.90,WSW,239,9.0,13.0,54,0.00,,,0.00,Wunderground v.1.15,2014-02-08 07:03:00,
2014-02-07 23:10:00,48.2,31.9,29.90,SE,137,9.0,9.0,53,0.00,,,0.00,Wunderground v.1.15,2014-02-08 07:10:00,
2014-02-07 23:11:00,48.2,32.8,29.90,SSW,199,9.0,9.0,55,0.00,,,0.00,Wunderground v.1.15,2014-02-08 07:11:00,
2014-02-07 23:14:00,48.0,31.7,29.90,WSW,248,9.0,9.0,53,0.00,,,0.00,Wunderground v.1.15,2014-02-08 07:14:00,
2014-02-07 23:18:00,48.0,30.7,29.89,WSW,250,7.0,9.0,51,0.00,,,0.00,Wunderground v.1.15,2014-02-08 07:18:00,
2014-02-07 23:20:00,48.2,30.9,29.89,West,270,8.0,8.0,51,0.00,,,0.00,Wunderground v.1.15,2014-02-08 07:20:00,
2014-02-07 23:24:00,48.3,30.5,29.89,SW,233,8.0,14.0,50,0.00,,,0.00,Wunderground v.1.15,2014-02-08 07:24:00,
2014-02-07 23:28:00,48.3,29.5,29.89,SW,230,9.0,15.0,48,0.00,,,0.00,Wunderground v.1.15,2014-02-08 07:28:00,
2014-02-07 23:30:00,48.5,29.7,29.90,SSW,208,10.0,11.0,48,0.00,,,0.00,Wunderground v.1.15,2014-02-08 07:30:00,
2014-02-07 23:32:00,48.6,29.8,29.90,SW,232,11.0,14.0,48,0.00,,,0.00,Wunderground v.1.15,2014-02-08 07:32:00,
2014-02-07 23:34:00,48.8,30.0,29.90,SE,126,11.0,14.0,48,0.00,,,0.00,Wunderground v.1.15,2014-02-08 07:34:00,
2014-02-07 23:36:00,48.8,30.5,29.90,WSW,248,11.0,14.0,49,0.00,,,0.00,Wunderground v.1.15,2014-02-08 07:36:00,
2014-02-07 23:40:00,48.5,31.2,29.90,SSE,161,8.0,9.0,51,0.00,,,0.00,Wunderground v.1.15,2014-02-08 07:40:00,
2014-02-07 23:42:00,48.2,30.9,29.90,SSE,161,7.0,9.0,51,0.00,,,0.00,Wunderground v.1.15,2014-02-08 07:42:00,
2014-02-07 23:46:00,47.7,31.4,29.92,SE,127,5.0,9.0,53,0.00,,,0.00,Wunderground v.1.15,2014-02-08 07:46:00,
2014-02-07 23:48:00,47.4,31.1,29.92,WSW,254,5.0,9.0,53,0.00,,,0.00,Wunderground v.1.15,2014-02-08 07:48:00,
2014-02-07 23:52:00,47.3,29.6,29.92,WSW,256,7.0,17.0,50,0.00,,,0.00,Wunderground v.1.15,2014-02-08 07:52:00,
2014-02-07 23:53:00,47.6,29.9,29.92,SW,230,7.0,17.0,50,0.00,,,0.00,Wunderground v.1.15,2014-02-08 07:53:00,
2014-02-07 23:55:00,47.7,30.0,29.92,ESE,102,7.0,17.0,50,0.00,,,0.00,Wunderground v.1.15,2014-02-08 07:55:00,
2014-02-07 23:58:00,47.7,30.4,29.92,South,179,7.0,17.0,51,0.00,,,0.00,Wunderground v.1.15,2014-02-08 07:58:00,